Time;durP1;ratioP1;P1;durP2;ratioP2;P2;SDS_P1;SDS_P2;PMS_P1;PMS_P2;Temp;Humidity;BMP_temperature;BMP_pressure;BME280_temperature;BME280_humidity;BME280_pressure;Samples;Min_cycle;Max_cycle;Signal;HPM_P1;HPM_P2
2023/05/03 00:00:40;;;;;;;1.75;1.27;;;17.90;68.60;;;;;;5072366;28;20088;-31
2023/05/03 00:03:08;;;;;;;1.50;1.15;;;17.10;68.30;;;;;;5069509;28;20044;-31
2023/05/03 00:05:34;;;;;;;1.67;1.10;;;17.50;68.20;;;;;;5052456;28;20049;-31
2023/05/03 00:08:01;;;;;;;2.15;1.15;;;17.10;62.40;;;;;;5052239;28;20045;-31
2023/05/03 00:10:29;;;;;;;1.38;1.00;;;18.50;51.90;;;;;;5052169;28;20059;-33
2023/05/03 00:12:56;;;;;;;3.03;1.23;;;17.10;67.90;;;;;;5052031;28;20549;-32
2023/05/03 00:15:22;;;;;;;2.45;1.25;;;16.30;67.60;;;;;;5072094;28;20080;-31
2023/05/03 00:17:50;;;;;;;1.38;1.00;;;;;;;;;;5072072;28;20048;-34
2023/05/03 00:20:19;;;;;;;1.27;1.00;;;16.70;68.10;;;;;;5071914;28;20107;-32
2023/05/03 00:22:46;;;;;;;1.77;1.17;;;18.10;68.50;;;;;;5071813;28;20087;-32
2023/05/03 00:25:14;;;;;;;2.72;1.20;;;18.00;68.90;;;;;;5052279;28;20506;-31
2023/05/03 00:27:40;;;;;;;1.60;1.05;;;18.30;68.80;;;;;;5052029;28;20088;-32
2023/05/03 00:30:09;;;;;;;1.58;1.17;;;18.20;69.10;;;;;;5051889;28;20136;-31
2023/05/03 00:32:36;;;;;;;1.55;1.10;;;;;;;;;;5051593;28;20051;-34
2023/05/03 00:35:03;;;;;;;1.63;1.13;;;17.80;68.40;;;;;;5068948;28;20059;-31
2023/05/03 00:37:31;;;;;;;1.40;1.00;;;17.90;68.50;;;;;;5071140;28;20136;-31
2023/05/03 00:39:58;;;;;;;2.00;1.20;;;;;;;;;;5071720;28;20589;-35
2023/05/03 00:42:25;;;;;;;1.63;1.10;;;18.10;68.80;;;;;;5071465;28;20485;-31
2023/05/03 00:44:51;;;;;;;1.75;1.23;;;18.00;69.10;;;;;;5070916;28;20045;-31
2023/05/03 00:47:18;;;;;;;1.20;0.95;;;17.70;54.50;;;;;;5071730;28;20408;-32
2023/05/03 00:49:45;;;;;;;1.52;1.10;;;18.60;62.00;;;;;;5071618;28;20140;-31
2023/05/03 00:52:12;;;;;;;1.73;1.10;;;17.50;68.50;;;;;;5075551;28;20056;-31
2023/05/03 00:54:40;;;;;;;1.27;1.10;;;17.60;68.40;;;;;;5075154;28;20076;-31
2023/05/03 00:57:07;;;;;;;2.10;1.10;;;17.60;68.50;;;;;;5075755;28;20052;-31
2023/05/03 00:59:34;;;;;;;1.92;1.15;;;17.40;68.70;;;;;;5075890;28;20127;-31
2023/05/03 01:02:01;;;;;;;1.33;0.95;;;;;;;;;;5075587;28;20390;-33
2023/05/03 01:04:28;;;;;;;2.47;1.20;;;18.00;69.20;;;;;;5062606;28;20499;-31
2023/05/03 01:07:02;;;;;;;1.15;0.80;;;17.60;49.20;;;;;;5055459;28;20489;-34
2023/05/03 01:09:33;;;;;;;1.35;1.20;;;17.60;49.20;;;;;;5055675;28;20131;-35
2023/05/03 01:12:08;;;;;;;1.40;1.00;;;18.60;69.40;;;;;;5055587;28;20480;-32
2023/05/03 01:14:38;;;;;;;1.45;1.10;;;18.00;56.90;;;;;;5056433;28;20099;-32
2023/05/03 01:17:08;;;;;;;1.67;1.08;;;18.10;54.40;;;;;;5054993;28;20607;-33
2023/05/03 01:19:37;;;;;;;1.13;1.00;;;18.00;50.00;;;;;;5055889;28;20041;-35
2023/05/03 01:22:15;;;;;;;2.63;1.02;;;17.80;68.70;;;;;;5055274;28;20048;-32
2023/05/03 01:24:43;;;;;;;1.63;1.13;;;17.00;68.40;;;;;;5068645;28;20405;-31
2023/05/03 01:27:11;;;;;;;1.95;1.10;;;18.00;65.50;;;;;;5074760;28;20044;-31
2023/05/03 01:29:38;;;;;;;1.60;1.13;;;16.50;62.10;;;;;;5074908;28;20135;-31
2023/05/03 01:32:06;;;;;;;1.67;1.00;;;17.20;68.50;;;;;;5074702;28;20048;-31
2023/05/03 01:34:49;;;;;;;1.70;1.13;;;17.50;49.20;;;;;;5074223;28;20565;-35
2023/05/03 01:37:16;;;;;;;1.63;1.00;;;;;;;;;;5074457;28;20048;-35
2023/05/03 01:39:47;;;;;;;1.50;1.10;;;17.10;68.80;;;;;;5074675;28;20045;-32
2023/05/03 01:42:15;;;;;;;1.75;1.20;;;17.50;49.30;;;;;;5074606;28;20143;-34
2023/05/03 01:44:42;;;;;;;2.03;1.40;;;;;;;;;;5074140;28;20055;-35
2023/05/03 01:47:09;;;;;;;1.75;1.13;;;17.20;68.80;;;;;;5074433;28;20045;-30
2023/05/03 01:49:36;;;;;;;1.48;1.05;;;17.60;68.70;;;;;;5074627;28;20049;-32
2023/05/03 01:52:02;;;;;;;1.48;1.02;;;17.60;67.70;;;;;;5074614;28;20051;-31
2023/05/03 01:54:29;;;;;;;1.38;1.10;;;;;;;;;;5073926;28;20113;-32
2023/05/03 01:56:57;;;;;;;1.48;1.00;;;;;;;;;;5074528;28;20471;-32
2023/05/03 01:59:25;;;;;;;1.55;1.00;;;17.50;69.10;;;;;;5073105;28;20139;-31
2023/05/03 02:01:52;;;;;;;1.52;1.10;;;17.10;68.50;;;;;;5073213;28;20135;-31
2023/05/03 02:04:19;;;;;;;1.88;1.10;;;;;;;;;;5064570;28;20132;-33
2023/05/03 02:06:45;;;;;;;1.77;1.20;;;17.30;68.80;;;;;;5054499;28;20163;-30
2023/05/03 02:09:12;;;;;;;2.42;1.00;;;17.20;68.90;;;;;;5054318;28;20124;-31
2023/05/03 02:11:39;;;;;;;1.95;1.20;;;17.70;69.10;;;;;;5054411;28;20052;-31
2023/05/03 02:14:06;;;;;;;1.52;1.00;;;16.50;68.60;;;;;;5061469;28;20127;-30
2023/05/03 02:16:35;;;;;;;1.92;1.20;;;17.70;67.10;;;;;;5074401;28;20082;-31
2023/05/03 02:19:01;;;;;;;1.77;1.20;;;17.70;69.30;;;;;;5074217;28;20428;-31
2023/05/03 02:21:28;;;;;;;2.15;1.27;;;18.60;69.50;;;;;;5074085;28;20132;-31
2023/05/03 02:23:55;;;;;;;1.05;0.95;;;;;;;;;;5067806;28;20581;-35
2023/05/03 02:26:22;;;;;;;1.45;1.10;;;17.20;68.60;;;;;;5056213;28;20136;-32
2023/05/03 02:28:49;;;;;;;3.00;1.10;;;17.20;69.20;;;;;;5074073;28;20131;-31
2023/05/03 02:31:15;;;;;;;2.17;1.20;;;17.40;52.20;;;;;;5073729;28;20127;-33
2023/05/03 02:33:43;;;;;;;1.17;1.00;;;17.50;49.70;;;;;;5073006;28;20056;-31
2023/05/03 02:36:10;;;;;;;1.35;1.10;;;17.90;69.20;;;;;;5073472;28;20047;-31
2023/05/03 02:38:37;;;;;;;1.50;1.10;;;;;;;;;;5073652;28;20049;-31
2023/05/03 02:41:04;;;;;;;1.55;1.17;;;17.80;59.70;;;;;;5073892;28;20572;-31
2023/05/03 02:43:31;;;;;;;1.58;1.00;;;17.80;69.60;;;;;;5072636;28;20045;-31
2023/05/03 02:45:58;;;;;;;1.23;1.02;;;;;;;;;;5073615;28;20521;-34
2023/05/03 02:48:25;;;;;;;1.08;0.98;;;;;;;;;;5073621;28;20401;-34
2023/05/03 02:50:53;;;;;;;1.55;1.10;;;17.60;69.10;;;;;;5073937;28;20157;-32
2023/05/03 02:53:20;;;;;;;1.48;1.13;;;17.40;54.10;;;;;;5072764;28;20060;-33
2023/05/03 02:55:47;;;;;;;1.67;1.27;;;18.30;69.60;;;;;;5053526;28;20168;-32
2023/05/03 02:58:14;;;;;;;1.75;1.10;;;;;;;;;;5053623;28;20052;-34
2023/05/03 03:00:41;;;;;;;1.40;1.00;;;18.10;69.30;;;;;;5053305;28;20482;-31
2023/05/03 03:03:07;;;;;;;1.75;1.13;;;17.50;69.00;;;;;;5052896;28;20056;-31
2023/05/03 03:05:34;;;;;;;2.58;1.00;;;;;;;;;;5071712;28;20127;-34
2023/05/03 03:08:02;;;;;;;2.08;1.13;;;17.00;69.10;;;;;;5073450;28;20123;-31
2023/05/03 03:10:29;;;;;;;1.58;1.10;;;17.20;69.00;;;;;;5073013;28;20044;-31
2023/05/03 03:12:56;;;;;;;2.08;1.05;;;16.30;62.60;;;;;;5072973;28;20127;-31
2023/05/03 03:15:23;;;;;;;1.40;1.15;;;17.30;54.60;;;;;;5056302;28;20448;-32
2023/05/03 03:17:49;;;;;;;1.98;1.10;;;18.60;69.80;;;;;;5053166;28;20132;-31
2023/05/03 03:20:17;;;;;;;2.42;1.20;;;18.60;69.80;;;;;;5052941;28;20466;-31
2023/05/03 03:22:44;;;;;;;1.48;1.10;;;16.00;68.40;;;;;;5056009;28;20044;-31
2023/05/03 03:25:12;;;;;;;1.55;1.10;;;17.50;49.80;;;;;;5072327;28;20064;-35
2023/05/03 03:27:39;;;;;;;2.03;1.10;;;;;;;;;;5072505;28;20055;-35
2023/05/03 03:30:10;;;;;;;1.55;1.10;;;17.50;69.20;;;;;;5072646;28;20055;-32
2023/05/03 03:32:37;;;;;;;1.30;1.00;;;;;;;;;;5072528;28;20477;-34
2023/05/03 03:35:05;;;;;;;0.90;0.90;;;17.20;69.10;;;;;;5059129;28;20460;-31
2023/05/03 03:37:31;;;;;;;1.65;1.13;;;17.00;57.60;;;;;;5066622;28;20049;-32
2023/05/03 03:39:58;;;;;;;2.08;1.20;;;17.40;69.10;;;;;;5072796;28;20135;-31
2023/05/03 03:42:26;;;;;;;3.38;1.27;;;18.60;69.80;;;;;;5072133;28;20075;-32
2023/05/03 03:44:53;;;;;;;1.50;0.90;;;17.90;69.70;;;;;;5071651;28;20129;-31
2023/05/03 03:47:20;;;;;;;1.88;1.23;;;;;;;;;;5072592;28;20053;-33
2023/05/03 03:49:47;;;;;;;1.58;1.20;;;17.90;57.20;;;;;;5064278;28;20041;-31
2023/05/03 03:52:14;;;;;;;2.10;1.10;;;17.50;63.40;;;;;;5055180;28;20127;-33
2023/05/03 03:54:41;;;;;;;1.40;1.20;;;17.20;69.30;;;;;;5060398;28;20127;-31
2023/05/03 03:57:08;;;;;;;1.67;1.20;;;17.70;69.50;;;;;;5061013;28;20614;-31
2023/05/03 03:59:36;;;;;;;1.35;1.00;;;17.60;49.70;;;;;;5058945;28;20512;-32
2023/05/03 04:02:03;;;;;;;1.55;1.08;;;17.60;69.00;;;;;;5061695;28;20135;-31
2023/05/03 04:04:30;;;;;;;1.38;1.02;;;16.70;68.70;;;;;;5060067;28;20564;-31
2023/05/03 04:06:57;;;;;;;1.23;0.90;;;18.00;69.00;;;;;;5061178;28;20512;-31
2023/05/03 04:09:23;;;;;;;2.65;1.15;;;18.50;69.70;;;;;;5061509;28;20040;-31
2023/05/03 04:11:51;;;;;;;4.70;1.10;;;;;;;;;;5062416;28;20565;-34
2023/05/03 04:14:18;;;;;;;1.63;0.95;;;18.40;69.00;;;;;;5057710;28;20501;-31
2023/05/03 04:16:46;;;;;;;1.70;1.00;;;18.90;50.00;;;;;;5071826;28;20102;-34
2023/05/03 04:19:13;;;;;;;1.45;1.00;;;18.20;49.40;;;;;;5071988;28;20049;-34
2023/05/03 04:21:40;;;;;;;1.38;1.00;;;;;;;;;;5072173;28;20052;-34
2023/05/03 04:24:08;;;;;;;2.05;1.00;;;18.50;49.30;;;;;;5071027;28;20132;-34
2023/05/03 04:26:35;;;;;;;1.67;0.90;;;18.80;59.00;;;;;;5071193;28;20577;-31
2023/05/03 04:29:02;;;;;;;1.77;1.15;;;18.20;68.10;;;;;;5070497;28;20131;-31
2023/05/03 04:31:29;;;;;;;2.08;1.10;;;18.90;57.80;;;;;;5071835;28;20057;-33
2023/05/03 04:33:57;;;;;;;1.02;0.85;;;18.30;65.50;;;;;;5068590;28;20115;-32
2023/05/03 04:36:25;;;;;;;2.38;1.02;;;19.10;68.20;;;;;;5056469;28;20044;-31
2023/05/03 04:38:52;;;;;;;1.10;0.80;;;;;;;;;;5071783;28;20067;-31
2023/05/03 04:41:19;;;;;;;1.08;0.90;;;19.50;68.10;;;;;;5071806;28;20048;-31
2023/05/03 04:43:46;;;;;;;1.02;0.90;;;20.00;67.80;;;;;;5070899;28;20059;-31
2023/05/03 04:46:13;;;;;;;1.50;0.90;;;19.90;67.70;;;;;;5072012;28;20123;-31
2023/05/03 04:48:39;;;;;;;2.28;1.10;;;19.70;52.50;;;;;;5071659;28;20056;-33
2023/05/03 04:51:07;;;;;;;1.13;0.75;;;20.20;67.90;;;;;;5071562;28;20049;-31
2023/05/03 04:53:34;;;;;;;1.27;1.00;;;19.80;67.60;;;;;;5071605;28;20131;-31
2023/05/03 04:56:01;;;;;;;1.80;1.00;;;;;;;;;;5071442;28;20059;-34
2023/05/03 04:58:28;;;;;;;1.67;0.95;;;19.40;59.00;;;;;;5071857;28;20119;-31
2023/05/03 05:00:55;;;;;;;0.95;0.80;;;19.80;66.90;;;;;;5071609;28;20131;-31
2023/05/03 05:03:21;;;;;;;2.17;0.90;;;19.20;66.90;;;;;;5071388;28;20040;-31
2023/05/03 05:05:48;;;;;;;1.25;0.82;;;19.80;54.10;;;;;;5054129;28;20048;-32
2023/05/03 05:08:16;;;;;;;0.82;0.82;;;20.20;67.60;;;;;;5051226;28;20140;-31
2023/05/03 05:10:43;;;;;;;0.98;0.80;;;18.90;48.30;;;;;;5051652;28;20102;-31
2023/05/03 05:13:09;;;;;;;1.58;0.90;;;20.90;67.10;;;;;;5051292;28;20512;-31
2023/05/03 05:15:37;;;;;;;1.73;1.13;;;;;;;;;;5066856;28;20132;-33
2023/05/03 05:18:04;;;;;;;1.05;0.93;;;;;;;;;;5071318;28;20075;-31
2023/05/03 05:20:30;;;;;;;1.58;0.70;;;20.00;52.50;;;;;;5071173;28;20537;-32
2023/05/03 05:22:57;;;;;;;1.50;0.93;;;19.70;66.40;;;;;;5070980;28;20048;-31
2023/05/03 05:25:26;;;;;;;1.77;0.85;;;20.00;47.60;;;;;;5070626;28;20052;-37
2023/05/03 05:27:53;;;;;;;0.82;0.82;;;;;;;;;;5071580;28;20106;-34
2023/05/03 05:30:19;;;;;;;1.02;0.82;;;20.00;66.30;;;;;;5071311;28;20056;-32
2023/05/03 05:32:46;;;;;;;1.33;1.10;;;20.30;66.00;;;;;;5071261;28;20080;-31
2023/05/03 05:35:16;;;;;;;0.88;0.73;;;20.40;53.50;;;;;;5058772;28;20053;-32
2023/05/03 05:37:43;;;;;;;1.33;0.90;;;;;;;;;;5069775;28;20094;-35
2023/05/03 05:40:11;;;;;;;1.73;1.00;;;20.30;66.20;;;;;;5074757;28;20087;-31
2023/05/03 05:42:39;;;;;;;1.25;0.90;;;19.20;65.50;;;;;;5074912;28;20052;-31
2023/05/03 05:45:07;;;;;;;0.98;0.88;;;20.30;47.40;;;;;;5074085;28;20048;-31
2023/05/03 05:47:34;;;;;;;1.08;0.90;;;20.00;65.80;;;;;;5074350;28;20520;-31
2023/05/03 05:50:02;;;;;;;1.40;0.90;;;;;;;;;;5074520;28;20054;-31
2023/05/03 05:52:29;;;;;;;2.90;1.00;;;20.20;65.70;;;;;;5055837;28;20041;-31
2023/05/03 05:54:56;;;;;;;1.25;0.80;;;21.20;52.80;;;;;;5054977;28;20128;-32
2023/05/03 05:57:23;;;;;;;0.98;0.85;;;20.40;66.10;;;;;;5054608;28;20133;-31
2023/05/03 05:59:51;;;;;;;0.82;0.70;;;20.50;47.20;;;;;;5054254;28;20049;-31
2023/05/03 06:02:21;;;;;;;1.00;0.80;;;20.20;49.40;;;;;;5070097;28;20049;-33
2023/05/03 06:04:48;;;;;;;1.55;0.90;;;20.40;65.10;;;;;;5074486;28;20486;-31
2023/05/03 06:07:15;;;;;;;1.58;0.90;;;19.30;64.50;;;;;;5074512;28;20045;-31
2023/05/03 06:09:42;;;;;;;0.77;0.77;;;;;;;;;;5074610;28;20044;-35
2023/05/03 06:12:09;;;;;;;1.58;1.00;;;21.00;51.20;;;;;;5067968;28;20051;-31
2023/05/03 06:14:36;;;;;;;0.80;0.77;;;;;;;;;;5074526;28;20048;-34
2023/05/03 06:17:04;;;;;;;1.10;1.00;;;20.40;65.10;;;;;;5074179;28;20050;-32
2023/05/03 06:19:31;;;;;;;1.73;1.15;;;20.90;64.80;;;;;;5074171;28;20127;-31
2023/05/03 06:21:58;;;;;;;1.55;0.93;;;;;;;;;;5066501;28;20040;-32
2023/05/03 06:24:29;;;;;;;1.23;0.93;;;21.20;64.90;;;;;;5068661;28;20040;-31
2023/05/03 06:26:57;;;;;;;1.85;1.10;;;;;;;;;;5054038;28;20083;-35
2023/05/03 06:29:24;;;;;;;1.35;0.90;;;;;;;;;;5053746;28;20052;-31
2023/05/03 06:31:51;;;;;;;0.93;0.80;;;21.50;59.80;;;;;;5065240;28;20056;-31
2023/05/03 06:34:20;;;;;;;1.30;0.80;;;20.80;64.40;;;;;;5073620;28;20131;-32
2023/05/03 06:36:47;;;;;;;1.75;0.95;;;20.90;54.60;;;;;;5073524;28;20123;-34
2023/05/03 06:39:13;;;;;;;1.27;0.75;;;21.50;65.50;;;;;;5073776;28;20071;-31
2023/05/03 06:41:40;;;;;;;1.05;0.85;;;20.70;64.60;;;;;;5071810;28;20063;-31
2023/05/03 06:44:08;;;;;;;2.25;1.00;;;;;;;;;;5073217;28;20124;-33
2023/05/03 06:46:35;;;;;;;0.90;0.70;;;;;;;;;;5073643;28;20132;-31
2023/05/03 06:49:02;;;;;;;0.70;0.70;;;20.80;58.40;;;;;;5072854;28;20127;-31
2023/05/03 06:51:31;;;;;;;2.92;0.95;;;20.80;65.00;;;;;;5072881;28;20048;-31
2023/05/03 06:54:00;;;;;;;1.35;0.80;;;21.40;65.30;;;;;;5073137;28;20049;-31
2023/05/03 06:56:28;;;;;;;1.33;0.90;;;;;;;;;;5073289;28;20048;-34
2023/05/03 06:58:55;;;;;;;1.55;0.90;;;21.00;64.20;;;;;;5073250;28;20048;-32
2023/05/03 07:01:22;;;;;;;0.95;0.80;;;;;;;;;;5066643;28;20124;-34
2023/05/03 07:03:48;;;;;;;1.17;0.80;;;22.20;58.90;;;;;;5053008;28;20441;-31
2023/05/03 07:06:15;;;;;;;0.93;0.85;;;21.50;64.30;;;;;;5052948;28;20059;-31
2023/05/03 07:08:43;;;;;;;1.17;0.80;;;21.90;58.60;;;;;;5064150;28;20063;-31
2023/05/03 07:11:10;;;;;;;0.88;0.70;;;20.70;57.90;;;;;;5072792;28;20086;-33
2023/05/03 07:13:37;;;;;;;0.80;0.80;;;20.90;64.10;;;;;;5072648;28;20476;-31
2023/05/03 07:16:04;;;;;;;1.05;0.80;;;20.60;63.90;;;;;;5073244;28;20053;-31
2023/05/03 07:18:30;;;;;;;0.70;0.70;;;21.00;65.00;;;;;;5072633;28;20230;-31
2023/05/03 07:20:57;;;;;;;0.60;0.60;;;20.70;64.40;;;;;;5066414;28;20053;-31
2023/05/03 07:23:24;;;;;;;0.98;0.80;;;;;;;;;;5055932;28;20123;-35
2023/05/03 07:25:53;;;;;;;0.75;0.70;;;20.80;64.10;;;;;;5062114;28;20417;-31
2023/05/03 07:28:21;;;;;;;1.95;0.90;;;;;;;;;;5061237;28;20501;-34
2023/05/03 07:30:47;;;;;;;1.02;0.80;;;20.40;64.90;;;;;;5060730;28;20557;-32
2023/05/03 07:33:14;;;;;;;0.82;0.80;;;20.60;64.10;;;;;;5064197;28;20610;-32
2023/05/03 07:35:41;;;;;;;1.30;0.90;;;;;;;;;;5062080;28;20143;-34
2023/05/03 07:38:08;;;;;;;1.25;0.80;;;21.10;64.30;;;;;;5058078;28;20127;-31
2023/05/03 07:40:35;;;;;;;1.50;0.80;;;;;;;;;;5060220;28;20048;-35
2023/05/03 07:43:03;;;;;;;1.27;0.80;;;20.80;64.70;;;;;;5061044;28;20041;-31
2023/05/03 07:45:30;;;;;;;1.50;0.90;;;20.50;64.70;;;;;;5063062;28;20416;-31
2023/05/03 07:47:57;;;;;;;1.15;0.90;;;;;;;;;;5062465;28;20509;-34
2023/05/03 07:50:24;;;;;;;0.88;0.77;;;;;;;;;;5054443;28;20047;-34
2023/05/03 07:52:51;;;;;;;2.92;1.17;;;;;;;;;;5049879;28;20056;-35
2023/05/03 07:55:19;;;;;;;1.40;1.00;;;19.80;64.40;;;;;;5050228;28;20059;-31
2023/05/03 07:57:45;;;;;;;1.25;0.80;;;20.30;51.80;;;;;;5051068;28;20191;-32
2023/05/03 08:00:16;;;;;;;3.13;0.90;;;19.50;48.80;;;;;;5063350;28;20044;-33
2023/05/03 08:02:42;;;;;;;1.73;0.80;;;20.40;64.90;;;;;;5070624;28;20128;-31
2023/05/03 08:05:12;;;;;;;1.13;0.85;;;20.60;46.80;;;;;;5071033;28;20135;-35
2023/05/03 08:07:39;;;;;;;1.70;0.90;;;19.70;64.30;;;;;;5071999;28;20056;-31
2023/05/03 08:10:07;;;;;;;1.55;0.82;;;20.40;58.70;;;;;;5071562;28;20044;-32
2023/05/03 08:12:34;;;;;;;1.20;0.70;;;;;;;;;;5071567;28;20087;-34
2023/05/03 08:15:01;;;;;;;1.27;0.82;;;20.50;66.60;;;;;;5072101;28;20053;-32
2023/05/03 08:17:29;;;;;;;1.50;0.80;;;20.70;46.90;;;;;;5071808;28;20098;-35
2023/05/03 08:19:56;;;;;;;3.38;0.90;;;;;;;;;;5060552;28;20045;-35
2023/05/03 08:22:25;;;;;;;1.85;0.70;;;20.40;65.20;;;;;;5051369;28;20049;-31
2023/05/03 08:24:55;;;;;;;3.22;0.80;;;;;;;;;;5051847;28;20587;-34
2023/05/03 08:27:23;;;;;;;0.88;0.80;;;21.30;66.30;;;;;;5051816;28;20056;-31
2023/05/03 08:29:50;;;;;;;1.52;0.95;;;20.20;64.90;;;;;;5061646;28;20045;-31
2023/05/03 08:32:18;;;;;;;1.88;1.10;;;20.20;64.80;;;;;;5071909;28;20127;-31
2023/05/03 08:34:46;;;;;;;1.20;0.80;;;20.20;64.70;;;;;;5071704;28;20453;-32
2023/05/03 08:37:13;;;;;;;1.98;1.20;;;19.90;63.70;;;;;;5071337;28;20045;-31
2023/05/03 08:39:40;;;;;;;2.22;0.80;;;;;;;;;;5069054;28;20128;-32
2023/05/03 08:42:08;;;;;;;2.55;1.00;;;20.00;46.70;;;;;;5061569;28;20505;-33
2023/05/03 08:44:37;;;;;;;2.33;1.10;;;20.10;64.80;;;;;;5063207;28;20073;-31
2023/05/03 08:47:04;;;;;;;2.65;0.95;;;19.90;65.20;;;;;;5071668;28;20135;-32
2023/05/03 08:49:31;;;;;;;1.15;0.80;;;20.20;65.00;;;;;;5071432;28;20128;-31
2023/05/03 08:51:59;;;;;;;1.00;0.80;;;19.90;64.80;;;;;;5071009;28;20139;-31
2023/05/03 08:54:26;;;;;;;1.38;0.90;;;20.00;65.40;;;;;;5071704;28;20041;-31
2023/05/03 08:56:52;;;;;;;1.63;0.80;;;19.90;65.80;;;;;;5071697;28;20131;-32
2023/05/03 08:59:19;;;;;;;1.55;0.80;;;;;;;;;;5071674;28;20128;-34
2023/05/03 09:01:47;;;;;;;2.70;0.88;;;19.80;52.80;;;;;;5071204;28;20131;-32
2023/05/03 09:04:13;;;;;;;1.33;0.70;;;20.50;62.60;;;;;;5071356;28;20063;-31
2023/05/03 09:06:40;;;;;;;1.77;0.80;;;20.00;65.00;;;;;;5071007;28;20052;-31
2023/05/03 09:09:09;;;;;;;1.30;0.80;;;20.50;48.40;;;;;;5071519;28;20044;-31
2023/05/03 09:11:37;;;;;;;3.00;0.70;;;20.50;48.30;;;;;;5073045;28;20049;-33
2023/05/03 09:14:15;;;;;;;1.52;0.88;;;20.90;47.60;;;;;;5075416;28;20061;-34
2023/05/03 09:16:43;;;;;;;1.85;0.88;;;20.00;47.10;;;;;;5075077;28;20457;-35
2023/05/03 09:19:11;;;;;;;1.10;0.75;;;19.90;47.10;;;;;;5071748;28;20503;-36
2023/05/03 09:21:38;;;;;;;2.65;1.00;;;;;;;;;;5060780;28;20053;-35
2023/05/03 09:24:14;;;;;;;3.78;1.05;;;20.00;65.80;;;;;;5054961;28;20139;-31
2023/05/03 09:26:41;;;;;;;1.13;0.82;;;18.70;64.80;;;;;;5055653;28;20131;-31
2023/05/03 09:29:08;;;;;;;3.55;0.80;;;20.50;65.80;;;;;;5065055;28;20166;-31
2023/05/03 09:31:35;;;;;;;2.80;0.90;;;19.40;63.10;;;;;;5062335;28;20049;-31
2023/05/03 09:34:03;;;;;;;3.08;0.90;;;;;;;;;;5063346;28;20147;-35
2023/05/03 09:36:44;;;;;;;4.40;0.90;;;19.80;47.40;;;;;;5064058;28;20049;-34
2023/05/03 09:39:17;;;;;;;3.05;0.90;;;20.10;51.80;;;;;;5064441;28;20120;-32
2023/05/03 09:41:44;;;;;;;2.53;1.00;;;19.80;66.00;;;;;;5065338;28;20098;-31
2023/05/03 09:44:11;;;;;;;1.13;1.00;;;20.00;51.30;;;;;;5066659;28;20051;-33
2023/05/03 09:46:38;;;;;;;3.22;1.00;;;19.70;47.30;;;;;;5063179;28;20134;-34
2023/05/03 09:49:05;;;;;;;2.40;1.00;;;;;;;;;;5062214;28;20520;-35
2023/05/03 09:51:31;;;;;;;2.60;1.00;;;19.90;66.40;;;;;;5064409;28;20557;-31
2023/05/03 09:53:58;;;;;;;2.10;0.90;;;18.80;65.50;;;;;;5063164;28;20557;-31
2023/05/03 09:56:26;;;;;;;2.72;1.00;;;19.80;61.90;;;;;;5065612;28;20119;-34
2023/05/03 09:58:53;;;;;;;1.10;0.93;;;19.70;62.30;;;;;;5073228;28;20456;-32
2023/05/03 10:01:21;;;;;;;1.00;0.90;;;20.00;65.70;;;;;;5074502;28;20052;-31
2023/05/03 10:03:49;;;;;;;2.40;1.27;;;20.00;62.60;;;;;;5074320;28;20444;-31
2023/05/03 10:06:24;;;;;;;2.10;0.98;;;19.10;65.70;;;;;;5073237;28;20102;-31
2023/05/03 10:08:53;;;;;;;2.25;0.90;;;19.80;65.80;;;;;;5073942;28;20136;-32
2023/05/03 10:11:20;;;;;;;2.30;1.00;;;19.80;66.20;;;;;;5074213;28;20049;-31
2023/05/03 10:13:48;;;;;;;1.23;0.95;;;19.60;47.60;;;;;;5074018;28;20512;-35
2023/05/03 10:16:19;;;;;;;1.67;1.00;;;19.60;47.60;;;;;;5074106;28;20135;-35
2023/05/03 10:18:49;;;;;;;1.00;0.90;;;19.70;59.50;;;;;;5074264;28;20059;-33
2023/05/03 10:21:19;;;;;;;1.23;0.80;;;19.50;47.60;;;;;;5067856;28;20060;-33
2023/05/03 10:24:12;;;;;;;2.00;1.30;;;19.50;65.80;;;;;;5052115;28;20052;-31
2023/05/03 10:26:40;;;;;;;1.33;0.93;;;19.60;50.50;;;;;;5053461;28;20052;-31
2023/05/03 10:29:28;;;;;;;1.27;1.00;;;20.50;66.40;;;;;;5053393;28;20056;-31
2023/05/03 10:31:54;;;;;;;1.27;0.90;;;19.60;65.90;;;;;;5053577;28;20132;-30
2023/05/03 10:34:25;;;;;;;1.33;0.90;;;19.60;66.80;;;;;;5059285;28;20067;-31
2023/05/03 10:36:52;;;;;;;2.35;0.90;;;;;;;;;;5059787;28;20049;-31
2023/05/03 10:39:20;;;;;;;1.30;0.90;;;19.40;66.20;;;;;;5062370;28;20045;-31
2023/05/03 10:42:00;;;;;;;1.80;1.08;;;19.10;50.50;;;;;;5063707;28;20119;-34
2023/05/03 10:44:28;;;;;;;0.90;0.90;;;19.20;56.40;;;;;;5064034;28;20071;-31
2023/05/03 10:46:55;;;;;;;2.08;0.95;;;19.70;66.40;;;;;;5056070;28;20049;-31
2023/05/03 10:49:22;;;;;;;1.60;0.90;;;19.70;66.10;;;;;;5059354;28;20076;-31
2023/05/03 10:51:49;;;;;;;1.60;0.95;;;20.30;66.30;;;;;;5063591;28;20119;-31
2023/05/03 10:54:18;;;;;;;1.58;0.80;;;19.20;65.80;;;;;;5070293;28;20049;-31
2023/05/03 10:56:58;;;;;;;1.20;0.98;;;19.40;47.60;;;;;;5070365;28;20048;-34
2023/05/03 10:59:26;;;;;;;0.98;0.90;;;19.50;66.10;;;;;;5069653;28;20571;-31
2023/05/03 11:01:54;;;;;;;1.40;0.98;;;19.80;57.90;;;;;;5071651;28;20420;-31
2023/05/03 11:04:34;;;;;;;1.85;0.88;;;19.40;47.60;;;;;;5070327;28;20119;-32
2023/05/03 11:07:01;;;;;;;0.80;0.70;;;19.50;56.30;;;;;;5071671;28;20052;-31
2023/05/03 11:09:31;;;;;;;1.30;0.88;;;19.50;47.60;;;;;;5072480;28;20045;-33
2023/05/03 11:11:58;;;;;;;1.25;0.90;;;19.60;65.90;;;;;;5072973;28;20540;-31
2023/05/03 11:14:25;;;;;;;1.13;0.93;;;19.40;65.70;;;;;;5073039;28;20131;-31
2023/05/03 11:16:55;;;;;;;1.10;0.90;;;20.40;67.00;;;;;;5073217;28;20098;-32
2023/05/03 11:19:24;;;;;;;0.93;0.80;;;20.50;52.50;;;;;;5064270;28;20048;-31
2023/05/03 11:21:52;;;;;;;2.05;0.88;;;;;;;;;;5052782;28;20048;-35
2023/05/03 11:24:19;;;;;;;1.45;0.85;;;20.40;66.30;;;;;;5053046;28;20076;-31
2023/05/03 11:26:46;;;;;;;0.80;0.80;;;;;;;;;;5052985;28;20060;-35
2023/05/03 11:29:12;;;;;;;1.17;0.80;;;20.30;65.60;;;;;;5052936;28;20063;-31
2023/05/03 11:31:41;;;;;;;0.95;0.70;;;19.80;66.10;;;;;;5052784;28;20041;-30
2023/05/03 11:34:08;;;;;;;1.00;0.80;;;20.00;62.80;;;;;;5061228;28;20048;-31
2023/05/03 11:36:36;;;;;;;0.77;0.77;;;20.20;53.40;;;;;;5072122;28;20044;-31
2023/05/03 11:39:04;;;;;;;1.27;0.88;;;20.20;66.30;;;;;;5072739;28;20131;-31
2023/05/03 11:41:31;;;;;;;1.08;0.70;;;20.30;65.50;;;;;;5072701;28;20048;-31
2023/05/03 11:43:58;;;;;;;1.75;1.00;;;;;;;;;;5072056;28;20052;-35
2023/05/03 11:46:26;;;;;;;0.80;0.77;;;19.50;54.60;;;;;;5072756;28;20044;-31
2023/05/03 11:48:52;;;;;;;0.82;0.77;;;21.00;59.70;;;;;;5071359;28;20067;-31
2023/05/03 11:51:21;;;;;;;0.90;0.80;;;19.60;65.40;;;;;;5072682;28;20190;-31
2023/05/03 11:53:50;;;;;;;0.80;0.80;;;19.90;47.00;;;;;;5072065;28;20083;-32
2023/05/03 11:56:17;;;;;;;1.85;1.30;;;20.20;52.50;;;;;;5072731;28;20052;-32
2023/05/03 11:58:52;;;;;;;0.77;0.77;;;20.30;65.40;;;;;;5072148;28;20194;-31
2023/05/03 12:01:19;;;;;;;1.25;0.80;;;20.00;47.00;;;;;;5072362;28;20044;-35
2023/05/03 12:03:48;;;;;;;0.80;0.80;;;19.10;64.70;;;;;;5071149;28;20123;-31
2023/05/03 12:06:16;;;;;;;1.25;0.80;;;20.30;65.70;;;;;;5072268;28;20044;-32
2023/05/03 12:08:43;;;;;;;0.80;0.70;;;;;;;;;;5072159;28;20105;-35
2023/05/03 12:11:11;;;;;;;0.75;0.75;;;20.20;66.10;;;;;;5071732;28;20386;-32
2023/05/03 12:13:38;;;;;;;0.95;0.73;;;20.60;66.00;;;;;;5072091;28;20052;-32
2023/05/03 12:16:06;;;;;;;1.25;0.85;;;19.80;47.00;;;;;;5071968;28;20143;-36
2023/05/03 12:18:45;;;;;;;1.00;0.90;;;19.40;65.50;;;;;;5052606;28;20557;-31
2023/05/03 12:21:14;;;;;;;0.80;0.73;;;19.60;65.30;;;;;;5052031;28;20472;-31
2023/05/03 12:23:41;;;;;;;2.25;1.10;;;20.10;65.60;;;;;;5051742;28;20564;-31
2023/05/03 12:26:08;;;;;;;1.83;0.95;;;19.40;60.70;;;;;;5051828;28;20041;-32
2023/05/03 12:28:36;;;;;;;0.80;0.80;;;19.80;47.20;;;;;;5051836;28;20186;-31
2023/05/03 12:31:03;;;;;;;1.45;0.95;;;20.00;66.40;;;;;;5052302;28;20055;-31
2023/05/03 12:33:30;;;;;;;0.82;0.73;;;;;;;;;;5071860;28;20054;-35
2023/05/03 12:35:57;;;;;;;1.55;0.90;;;19.70;66.10;;;;;;5071313;28;20045;-31
2023/05/03 12:38:24;;;;;;;1.02;0.90;;;;;;;;;;5070552;28;20120;-34
2023/05/03 12:40:51;;;;;;;1.35;0.80;;;20.00;65.80;;;;;;5071480;28;20060;-32
2023/05/03 12:43:18;;;;;;;1.27;1.00;;;20.40;55.50;;;;;;5071538;28;20059;-32
2023/05/03 12:45:46;;;;;;;1.15;0.80;;;19.70;66.10;;;;;;5071014;28;20429;-32
2023/05/03 12:48:13;;;;;;;1.20;1.10;;;20.10;53.60;;;;;;5075792;28;20067;-31
2023/05/03 12:50:40;;;;;;;0.80;0.75;;;19.90;65.70;;;;;;5075589;28;20128;-31
2023/05/03 12:53:07;;;;;;;0.80;0.80;;;20.10;55.40;;;;;;5075375;28;20045;-32
2023/05/03 12:55:34;;;;;;;1.50;1.00;;;19.10;65.70;;;;;;5076106;28;20059;-30
2023/05/03 12:58:01;;;;;;;1.08;0.73;;;20.30;57.80;;;;;;5075750;28;20090;-31
2023/05/03 13:00:28;;;;;;;1.20;1.00;;;19.60;65.20;;;;;;5071860;28;20071;-32
2023/05/03 13:02:56;;;;;;;0.90;0.80;;;19.80;47.20;;;;;;5055402;28;20100;-35
2023/05/03 13:05:23;;;;;;;1.65;0.80;;;20.00;56.40;;;;;;5055095;28;20493;-33
2023/05/03 13:07:50;;;;;;;1.55;0.90;;;;;;;;;;5055800;28;20131;-32